Aviation Digital Data Service (ADDS)

Output produced by METARs form (1009 UTC 18 January 2017)
found at http://aviationweather.gov/adds/metars/
 
KSYR 180903Z 1809/1906 14005KT 5SM -RA BR OVC015 
     TEMPO 1809/1812 2SM -RA BR OVC007 
     FM181200 25004KT 3SM -DZ BR OVC007 
     FM181800 27005KT P6SM OVC010